sensor_id;sensor_type;location;lat;lon;timestamp;P1;durP1;ratioP1;P2;durP2;ratioP2
69970;SDS011;57301;50.328;8.542;2023-03-14T00:00:57;5.78;;;2.80;;
69970;SDS011;57301;50.328;8.542;2023-03-14T00:03:24;9.30;;;3.00;;
69970;SDS011;57301;50.328;8.542;2023-03-14T00:05:50;6.40;;;2.87;;
69970;SDS011;57301;50.328;8.542;2023-03-14T00:08:17;5.03;;;2.50;;
69970;SDS011;57301;50.328;8.542;2023-03-14T00:10:44;4.78;;;2.42;;
69970;SDS011;57301;50.328;8.542;2023-03-14T00:13:10;5.88;;;2.88;;
69970;SDS011;57301;50.328;8.542;2023-03-14T00:15:36;3.85;;;2.50;;
69970;SDS011;57301;50.328;8.542;2023-03-14T00:18:03;5.07;;;2.60;;
69970;SDS011;57301;50.328;8.542;2023-03-14T00:20:29;4.45;;;2.75;;
69970;SDS011;57301;50.328;8.542;2023-03-14T00:22:56;4.95;;;2.60;;
69970;SDS011;57301;50.328;8.542;2023-03-14T00:25:22;4.50;;;2.60;;
69970;SDS011;57301;50.328;8.542;2023-03-14T00:27:52;4.20;;;2.75;;
69970;SDS011;57301;50.328;8.542;2023-03-14T00:30:19;6.70;;;2.90;;
69970;SDS011;57301;50.328;8.542;2023-03-14T00:32:45;6.88;;;2.83;;
69970;SDS011;57301;50.328;8.542;2023-03-14T00:35:12;4.53;;;2.28;;
69970;SDS011;57301;50.328;8.542;2023-03-14T00:37:38;9.75;;;2.88;;
69970;SDS011;57301;50.328;8.542;2023-03-14T00:40:05;4.40;;;2.42;;
69970;SDS011;57301;50.328;8.542;2023-03-14T00:42:33;5.07;;;2.43;;
69970;SDS011;57301;50.328;8.542;2023-03-14T00:45:00;4.40;;;2.40;;
69970;SDS011;57301;50.328;8.542;2023-03-14T00:47:26;6.70;;;2.42;;
69970;SDS011;57301;50.328;8.542;2023-03-14T00:49:53;4.85;;;2.67;;
69970;SDS011;57301;50.328;8.542;2023-03-14T00:52:19;5.43;;;2.75;;
69970;SDS011;57301;50.328;8.542;2023-03-14T00:54:46;5.47;;;2.47;;
69970;SDS011;57301;50.328;8.542;2023-03-14T00:57:12;4.57;;;2.50;;
69970;SDS011;57301;50.328;8.542;2023-03-14T00:59:39;8.27;;;3.10;;
69970;SDS011;57301;50.328;8.542;2023-03-14T01:02:05;5.90;;;2.80;;
69970;SDS011;57301;50.328;8.542;2023-03-14T01:04:32;6.25;;;2.83;;
69970;SDS011;57301;50.328;8.542;2023-03-14T01:06:58;4.53;;;2.90;;
69970;SDS011;57301;50.328;8.542;2023-03-14T01:09:25;9.15;;;3.60;;
69970;SDS011;57301;50.328;8.542;2023-03-14T01:11:51;6.35;;;2.78;;
69970;SDS011;57301;50.328;8.542;2023-03-14T01:14:18;6.70;;;3.03;;
69970;SDS011;57301;50.328;8.542;2023-03-14T01:16:44;7.57;;;3.00;;
69970;SDS011;57301;50.328;8.542;2023-03-14T01:19:11;6.63;;;3.50;;
69970;SDS011;57301;50.328;8.542;2023-03-14T01:21:37;7.90;;;3.03;;
69970;SDS011;57301;50.328;8.542;2023-03-14T01:24:04;7.72;;;3.40;;
69970;SDS011;57301;50.328;8.542;2023-03-14T01:26:32;10.13;;;3.10;;
69970;SDS011;57301;50.328;8.542;2023-03-14T01:29:00;5.10;;;2.80;;
69970;SDS011;57301;50.328;8.542;2023-03-14T01:31:27;6.37;;;2.70;;
69970;SDS011;57301;50.328;8.542;2023-03-14T01:33:54;5.13;;;2.55;;
69970;SDS011;57301;50.328;8.542;2023-03-14T01:36:21;6.32;;;2.50;;
69970;SDS011;57301;50.328;8.542;2023-03-14T01:38:47;6.57;;;2.33;;
69970;SDS011;57301;50.328;8.542;2023-03-14T01:41:19;5.93;;;2.80;;
69970;SDS011;57301;50.328;8.542;2023-03-14T01:43:47;8.13;;;3.20;;
69970;SDS011;57301;50.328;8.542;2023-03-14T01:51:35;7.90;;;2.55;;
69970;SDS011;57301;50.328;8.542;2023-03-14T01:54:53;5.35;;;2.50;;
69970;SDS011;57301;50.328;8.542;2023-03-14T01:59:43;6.55;;;2.53;;
69970;SDS011;57301;50.328;8.542;2023-03-14T02:02:15;9.88;;;2.80;;
69970;SDS011;57301;50.328;8.542;2023-03-14T02:04:41;9.77;;;2.90;;
69970;SDS011;57301;50.328;8.542;2023-03-14T02:07:13;4.68;;;2.60;;
69970;SDS011;57301;50.328;8.542;2023-03-14T02:09:43;5.30;;;2.13;;
69970;SDS011;57301;50.328;8.542;2023-03-14T02:12:11;5.45;;;2.50;;
69970;SDS011;57301;50.328;8.542;2023-03-14T02:14:40;4.80;;;2.60;;
69970;SDS011;57301;50.328;8.542;2023-03-14T02:17:08;4.50;;;2.30;;
69970;SDS011;57301;50.328;8.542;2023-03-14T02:22:26;7.63;;;2.73;;
69970;SDS011;57301;50.328;8.542;2023-03-14T02:27:31;4.28;;;2.17;;
69970;SDS011;57301;50.328;8.542;2023-03-14T02:30:00;7.05;;;2.40;;
69970;SDS011;57301;50.328;8.542;2023-03-14T02:32:31;5.45;;;2.58;;
69970;SDS011;57301;50.328;8.542;2023-03-14T02:35:01;6.27;;;2.60;;
69970;SDS011;57301;50.328;8.542;2023-03-14T02:37:35;6.47;;;2.10;;
69970;SDS011;57301;50.328;8.542;2023-03-14T02:40:05;5.32;;;2.25;;
69970;SDS011;57301;50.328;8.542;2023-03-14T02:42:32;5.90;;;2.20;;
69970;SDS011;57301;50.328;8.542;2023-03-14T02:45:25;6.07;;;2.30;;
69970;SDS011;57301;50.328;8.542;2023-03-14T02:48:02;5.50;;;2.40;;
69970;SDS011;57301;50.328;8.542;2023-03-14T02:50:33;5.43;;;2.08;;
69970;SDS011;57301;50.328;8.542;2023-03-14T02:53:00;6.45;;;2.15;;
69970;SDS011;57301;50.328;8.542;2023-03-14T02:55:26;5.20;;;1.73;;
69970;SDS011;57301;50.328;8.542;2023-03-14T02:57:53;7.70;;;2.38;;
69970;SDS011;57301;50.328;8.542;2023-03-14T03:00:19;5.77;;;1.90;;
69970;SDS011;57301;50.328;8.542;2023-03-14T03:02:46;6.07;;;2.10;;
69970;SDS011;57301;50.328;8.542;2023-03-14T03:05:12;4.90;;;1.92;;
69970;SDS011;57301;50.328;8.542;2023-03-14T03:07:39;5.20;;;2.03;;
69970;SDS011;57301;50.328;8.542;2023-03-14T03:10:06;5.05;;;2.10;;
69970;SDS011;57301;50.328;8.542;2023-03-14T03:12:33;5.63;;;2.33;;
69970;SDS011;57301;50.328;8.542;2023-03-14T03:14:59;5.63;;;1.80;;
69970;SDS011;57301;50.328;8.542;2023-03-14T03:17:26;5.45;;;2.20;;
69970;SDS011;57301;50.328;8.542;2023-03-14T03:19:52;6.95;;;1.98;;
69970;SDS011;57301;50.328;8.542;2023-03-14T03:22:18;5.85;;;2.28;;
69970;SDS011;57301;50.328;8.542;2023-03-14T03:24:45;5.83;;;2.03;;
69970;SDS011;57301;50.328;8.542;2023-03-14T03:27:11;7.93;;;2.05;;
69970;SDS011;57301;50.328;8.542;2023-03-14T03:29:38;6.45;;;2.00;;
69970;SDS011;57301;50.328;8.542;2023-03-14T03:32:04;6.53;;;2.00;;
69970;SDS011;57301;50.328;8.542;2023-03-14T03:34:31;3.92;;;1.90;;
69970;SDS011;57301;50.328;8.542;2023-03-14T03:36:57;5.27;;;2.37;;
69970;SDS011;57301;50.328;8.542;2023-03-14T03:39:24;6.50;;;2.00;;
69970;SDS011;57301;50.328;8.542;2023-03-14T03:41:50;3.80;;;1.90;;
69970;SDS011;57301;50.328;8.542;2023-03-14T03:44:17;4.20;;;2.30;;
69970;SDS011;57301;50.328;8.542;2023-03-14T03:46:43;4.97;;;2.10;;
69970;SDS011;57301;50.328;8.542;2023-03-14T03:49:10;5.07;;;1.87;;
69970;SDS011;57301;50.328;8.542;2023-03-14T03:51:36;6.30;;;2.13;;
69970;SDS011;57301;50.328;8.542;2023-03-14T03:54:03;3.38;;;2.03;;
69970;SDS011;57301;50.328;8.542;2023-03-14T03:56:29;6.10;;;2.30;;
69970;SDS011;57301;50.328;8.542;2023-03-14T03:58:57;4.43;;;2.20;;
69970;SDS011;57301;50.328;8.542;2023-03-14T04:01:24;7.10;;;2.20;;
69970;SDS011;57301;50.328;8.542;2023-03-14T04:03:50;4.53;;;2.13;;
69970;SDS011;57301;50.328;8.542;2023-03-14T04:06:17;5.18;;;2.55;;
69970;SDS011;57301;50.328;8.542;2023-03-14T04:08:43;5.53;;;2.50;;
69970;SDS011;57301;50.328;8.542;2023-03-14T04:11:10;6.10;;;2.45;;
69970;SDS011;57301;50.328;8.542;2023-03-14T04:13:37;5.17;;;2.30;;
69970;SDS011;57301;50.328;8.542;2023-03-14T04:16:03;5.05;;;2.40;;
69970;SDS011;57301;50.328;8.542;2023-03-14T04:18:35;7.63;;;3.40;;
69970;SDS011;57301;50.328;8.542;2023-03-14T04:21:02;4.95;;;2.50;;
69970;SDS011;57301;50.328;8.542;2023-03-14T04:23:29;7.32;;;2.70;;
69970;SDS011;57301;50.328;8.542;2023-03-14T04:25:55;6.27;;;3.13;;
69970;SDS011;57301;50.328;8.542;2023-03-14T04:28:22;4.80;;;2.65;;
69970;SDS011;57301;50.328;8.542;2023-03-14T04:30:48;4.60;;;2.33;;
69970;SDS011;57301;50.328;8.542;2023-03-14T04:33:15;5.70;;;2.63;;
69970;SDS011;57301;50.328;8.542;2023-03-14T04:35:44;8.32;;;2.45;;
69970;SDS011;57301;50.328;8.542;2023-03-14T04:38:11;5.40;;;2.17;;
69970;SDS011;57301;50.328;8.542;2023-03-14T04:40:41;6.20;;;2.40;;
69970;SDS011;57301;50.328;8.542;2023-03-14T04:43:09;5.15;;;2.38;;
69970;SDS011;57301;50.328;8.542;2023-03-14T04:45:37;5.47;;;2.25;;
69970;SDS011;57301;50.328;8.542;2023-03-14T04:48:07;6.43;;;2.40;;
69970;SDS011;57301;50.328;8.542;2023-03-14T04:50:33;4.37;;;2.20;;
69970;SDS011;57301;50.328;8.542;2023-03-14T04:53:00;6.40;;;2.60;;
69970;SDS011;57301;50.328;8.542;2023-03-14T04:55:27;3.55;;;2.17;;
69970;SDS011;57301;50.328;8.542;2023-03-14T04:57:54;6.20;;;2.53;;
69970;SDS011;57301;50.328;8.542;2023-03-14T05:00:20;6.55;;;2.50;;
69970;SDS011;57301;50.328;8.542;2023-03-14T05:02:46;5.13;;;2.50;;
69970;SDS011;57301;50.328;8.542;2023-03-14T05:05:13;7.22;;;2.50;;
69970;SDS011;57301;50.328;8.542;2023-03-14T05:07:39;5.90;;;2.45;;
69970;SDS011;57301;50.328;8.542;2023-03-14T05:10:06;6.70;;;2.47;;
69970;SDS011;57301;50.328;8.542;2023-03-14T05:12:33;6.20;;;3.25;;
69970;SDS011;57301;50.328;8.542;2023-03-14T05:14:59;8.07;;;2.70;;
69970;SDS011;57301;50.328;8.542;2023-03-14T05:17:26;5.03;;;2.08;;
69970;SDS011;57301;50.328;8.542;2023-03-14T05:19:52;7.95;;;2.05;;
69970;SDS011;57301;50.328;8.542;2023-03-14T05:22:18;3.38;;;1.70;;
69970;SDS011;57301;50.328;8.542;2023-03-14T05:24:45;3.88;;;1.70;;
69970;SDS011;57301;50.328;8.542;2023-03-14T05:27:11;3.80;;;1.70;;
69970;SDS011;57301;50.328;8.542;2023-03-14T05:29:38;5.07;;;1.80;;
69970;SDS011;57301;50.328;8.542;2023-03-14T05:32:04;6.90;;;2.00;;
69970;SDS011;57301;50.328;8.542;2023-03-14T05:34:31;5.00;;;1.73;;
69970;SDS011;57301;50.328;8.542;2023-03-14T05:36:57;4.55;;;1.80;;
69970;SDS011;57301;50.328;8.542;2023-03-14T05:39:24;7.00;;;1.60;;
69970;SDS011;57301;50.328;8.542;2023-03-14T05:41:50;3.90;;;1.50;;
69970;SDS011;57301;50.328;8.542;2023-03-14T05:44:17;5.25;;;1.95;;
69970;SDS011;57301;50.328;8.542;2023-03-14T05:46:43;5.93;;;1.88;;
69970;SDS011;57301;50.328;8.542;2023-03-14T05:49:10;5.25;;;1.70;;
69970;SDS011;57301;50.328;8.542;2023-03-14T05:51:36;4.73;;;1.67;;
69970;SDS011;57301;50.328;8.542;2023-03-14T05:54:03;4.72;;;1.90;;
69970;SDS011;57301;50.328;8.542;2023-03-14T05:56:29;3.45;;;1.45;;
69970;SDS011;57301;50.328;8.542;2023-03-14T05:58:56;3.70;;;1.90;;
69970;SDS011;57301;50.328;8.542;2023-03-14T06:01:22;3.25;;;1.52;;
69970;SDS011;57301;50.328;8.542;2023-03-14T06:03:49;4.73;;;1.60;;
69970;SDS011;57301;50.328;8.542;2023-03-14T06:06:15;4.15;;;1.60;;
69970;SDS011;57301;50.328;8.542;2023-03-14T06:08:42;3.10;;;1.40;;
69970;SDS011;57301;50.328;8.542;2023-03-14T06:11:09;4.13;;;1.40;;
69970;SDS011;57301;50.328;8.542;2023-03-14T06:13:36;3.35;;;1.40;;
69970;SDS011;57301;50.328;8.542;2023-03-14T06:16:02;3.77;;;1.60;;
69970;SDS011;57301;50.328;8.542;2023-03-14T06:18:29;3.20;;;1.40;;
69970;SDS011;57301;50.328;8.542;2023-03-14T06:20:55;3.33;;;1.40;;
69970;SDS011;57301;50.328;8.542;2023-03-14T06:23:22;3.28;;;1.50;;
69970;SDS011;57301;50.328;8.542;2023-03-14T06:25:49;4.10;;;1.55;;
69970;SDS011;57301;50.328;8.542;2023-03-14T06:28:15;2.63;;;1.30;;
69970;SDS011;57301;50.328;8.542;2023-03-14T06:30:42;3.63;;;1.45;;
69970;SDS011;57301;50.328;8.542;2023-03-14T06:33:08;3.55;;;1.50;;
69970;SDS011;57301;50.328;8.542;2023-03-14T06:35:35;4.55;;;1.50;;
69970;SDS011;57301;50.328;8.542;2023-03-14T06:38:02;4.78;;;1.50;;
69970;SDS011;57301;50.328;8.542;2023-03-14T06:40:29;3.10;;;1.40;;
69970;SDS011;57301;50.328;8.542;2023-03-14T06:42:56;2.80;;;1.30;;
69970;SDS011;57301;50.328;8.542;2023-03-14T06:45:22;5.20;;;1.75;;
69970;SDS011;57301;50.328;8.542;2023-03-14T06:47:49;2.83;;;1.33;;
69970;SDS011;57301;50.328;8.542;2023-03-14T06:50:16;4.10;;;1.48;;
69970;SDS011;57301;50.328;8.542;2023-03-14T06:52:42;3.97;;;1.47;;
69970;SDS011;57301;50.328;8.542;2023-03-14T06:55:14;2.40;;;1.40;;
69970;SDS011;57301;50.328;8.542;2023-03-14T06:57:41;3.78;;;1.88;;
69970;SDS011;57301;50.328;8.542;2023-03-14T07:00:08;7.85;;;2.28;;
69970;SDS011;57301;50.328;8.542;2023-03-14T07:02:35;8.75;;;2.28;;
69970;SDS011;57301;50.328;8.542;2023-03-14T07:05:08;2.93;;;1.50;;
69970;SDS011;57301;50.328;8.542;2023-03-14T07:07:36;7.65;;;2.78;;
69970;SDS011;57301;50.328;8.542;2023-03-14T07:10:03;4.13;;;1.90;;
69970;SDS011;57301;50.328;8.542;2023-03-14T07:12:30;2.72;;;1.40;;
69970;SDS011;57301;50.328;8.542;2023-03-14T07:14:56;3.67;;;1.60;;
69970;SDS011;57301;50.328;8.542;2023-03-14T07:17:37;3.80;;;1.30;;
69970;SDS011;57301;50.328;8.542;2023-03-14T07:20:03;3.28;;;1.50;;
69970;SDS011;57301;50.328;8.542;2023-03-14T07:22:33;4.13;;;1.45;;
69970;SDS011;57301;50.328;8.542;2023-03-14T07:25:00;3.25;;;1.63;;
69970;SDS011;57301;50.328;8.542;2023-03-14T07:27:26;4.90;;;1.40;;
69970;SDS011;57301;50.328;8.542;2023-03-14T07:29:53;2.37;;;1.40;;
69970;SDS011;57301;50.328;8.542;2023-03-14T07:32:19;2.67;;;1.40;;
69970;SDS011;57301;50.328;8.542;2023-03-14T07:34:46;3.13;;;1.30;;
69970;SDS011;57301;50.328;8.542;2023-03-14T07:37:12;3.20;;;1.30;;
69970;SDS011;57301;50.328;8.542;2023-03-14T07:39:39;3.25;;;1.40;;
69970;SDS011;57301;50.328;8.542;2023-03-14T07:42:05;3.97;;;1.20;;
69970;SDS011;57301;50.328;8.542;2023-03-14T07:44:32;3.10;;;1.45;;
69970;SDS011;57301;50.328;8.542;2023-03-14T07:46:59;2.78;;;1.40;;
69970;SDS011;57301;50.328;8.542;2023-03-14T07:49:25;3.58;;;1.35;;
69970;SDS011;57301;50.328;8.542;2023-03-14T07:51:52;3.75;;;1.20;;
69970;SDS011;57301;50.328;8.542;2023-03-14T07:54:18;3.03;;;1.33;;
69970;SDS011;57301;50.328;8.542;2023-03-14T07:56:46;3.60;;;1.40;;
69970;SDS011;57301;50.328;8.542;2023-03-14T07:59:12;4.10;;;1.40;;
69970;SDS011;57301;50.328;8.542;2023-03-14T08:01:39;2.58;;;1.30;;
69970;SDS011;57301;50.328;8.542;2023-03-14T08:04:05;2.38;;;1.40;;
69970;SDS011;57301;50.328;8.542;2023-03-14T08:06:32;5.47;;;1.70;;
69970;SDS011;57301;50.328;8.542;2023-03-14T08:08:58;2.20;;;1.20;;
69970;SDS011;57301;50.328;8.542;2023-03-14T08:11:25;4.05;;;1.58;;
69970;SDS011;57301;50.328;8.542;2023-03-14T08:13:51;3.28;;;1.40;;
69970;SDS011;57301;50.328;8.542;2023-03-14T08:16:18;2.60;;;1.30;;
69970;SDS011;57301;50.328;8.542;2023-03-14T08:18:45;3.10;;;1.43;;
69970;SDS011;57301;50.328;8.542;2023-03-14T08:21:12;2.65;;;1.40;;
69970;SDS011;57301;50.328;8.542;2023-03-14T08:23:38;2.33;;;1.10;;
69970;SDS011;57301;50.328;8.542;2023-03-14T08:26:05;2.17;;;1.33;;
69970;SDS011;57301;50.328;8.542;2023-03-14T08:28:32;3.05;;;1.20;;
69970;SDS011;57301;50.328;8.542;2023-03-14T08:30:59;3.80;;;1.30;;
69970;SDS011;57301;50.328;8.542;2023-03-14T08:33:28;2.58;;;1.00;;
69970;SDS011;57301;50.328;8.542;2023-03-14T08:35:55;2.95;;;1.10;;
69970;SDS011;57301;50.328;8.542;2023-03-14T08:38:23;2.40;;;1.20;;
69970;SDS011;57301;50.328;8.542;2023-03-14T08:40:54;2.60;;;1.25;;
69970;SDS011;57301;50.328;8.542;2023-03-14T08:43:22;2.40;;;1.30;;
69970;SDS011;57301;50.328;8.542;2023-03-14T08:45:48;2.10;;;1.10;;
69970;SDS011;57301;50.328;8.542;2023-03-14T08:48:14;2.33;;;1.27;;
69970;SDS011;57301;50.328;8.542;2023-03-14T08:50:41;3.45;;;1.73;;
69970;SDS011;57301;50.328;8.542;2023-03-14T08:53:07;4.70;;;1.25;;
69970;SDS011;57301;50.328;8.542;2023-03-14T08:55:35;2.23;;;1.20;;
69970;SDS011;57301;50.328;8.542;2023-03-14T08:58:01;3.13;;;1.30;;
69970;SDS011;57301;50.328;8.542;2023-03-14T09:00:28;2.65;;;1.20;;
69970;SDS011;57301;50.328;8.542;2023-03-14T09:02:55;2.03;;;1.20;;
69970;SDS011;57301;50.328;8.542;2023-03-14T09:05:21;3.50;;;1.45;;
69970;SDS011;57301;50.328;8.542;2023-03-14T09:07:47;3.50;;;1.40;;
69970;SDS011;57301;50.328;8.542;2023-03-14T09:10:14;2.95;;;1.30;;
69970;SDS011;57301;50.328;8.542;2023-03-14T09:12:40;3.55;;;1.30;;
69970;SDS011;57301;50.328;8.542;2023-03-14T09:15:07;3.65;;;1.30;;
69970;SDS011;57301;50.328;8.542;2023-03-14T09:17:34;2.40;;;1.30;;
69970;SDS011;57301;50.328;8.542;2023-03-14T09:20:01;3.40;;;1.37;;
69970;SDS011;57301;50.328;8.542;2023-03-14T09:22:32;2.28;;;1.15;;
69970;SDS011;57301;50.328;8.542;2023-03-14T09:25:02;2.22;;;1.25;;
69970;SDS011;57301;50.328;8.542;2023-03-14T09:27:29;3.75;;;1.50;;
69970;SDS011;57301;50.328;8.542;2023-03-14T09:29:56;2.85;;;1.40;;
69970;SDS011;57301;50.328;8.542;2023-03-14T09:32:22;2.23;;;1.30;;
69970;SDS011;57301;50.328;8.542;2023-03-14T09:34:49;2.72;;;1.42;;
69970;SDS011;57301;50.328;8.542;2023-03-14T09:37:15;2.45;;;1.33;;
69970;SDS011;57301;50.328;8.542;2023-03-14T09:39:42;3.40;;;1.60;;
69970;SDS011;57301;50.328;8.542;2023-03-14T09:42:12;3.03;;;1.30;;
69970;SDS011;57301;50.328;8.542;2023-03-14T09:44:48;2.33;;;1.50;;
69970;SDS011;57301;50.328;8.542;2023-03-14T09:47:23;2.45;;;1.30;;
69970;SDS011;57301;50.328;8.542;2023-03-14T09:49:51;2.58;;;1.30;;
69970;SDS011;57301;50.328;8.542;2023-03-14T09:54:54;2.03;;;1.30;;
69970;SDS011;57301;50.328;8.542;2023-03-14T09:57:30;2.83;;;1.10;;
69970;SDS011;57301;50.328;8.542;2023-03-14T10:00:21;2.50;;;1.30;;
69970;SDS011;57301;50.328;8.542;2023-03-14T10:02:55;2.97;;;1.30;;
69970;SDS011;57301;50.328;8.542;2023-03-14T10:05:25;2.30;;;1.35;;
69970;SDS011;57301;50.328;8.542;2023-03-14T10:07:55;2.60;;;1.27;;
69970;SDS011;57301;50.328;8.542;2023-03-14T10:10:23;2.33;;;1.20;;
69970;SDS011;57301;50.328;8.542;2023-03-14T10:15:36;2.35;;;1.20;;
69970;SDS011;57301;50.328;8.542;2023-03-14T10:18:05;2.10;;;1.40;;
69970;SDS011;57301;50.328;8.542;2023-03-14T10:20:40;2.30;;;1.30;;
69970;SDS011;57301;50.328;8.542;2023-03-14T10:25:41;2.08;;;1.13;;
69970;SDS011;57301;50.328;8.542;2023-03-14T10:30:54;2.85;;;1.30;;
69970;SDS011;57301;50.328;8.542;2023-03-14T10:33:25;2.50;;;1.20;;
69970;SDS011;57301;50.328;8.542;2023-03-14T10:35:57;2.00;;;1.20;;
69970;SDS011;57301;50.328;8.542;2023-03-14T10:38:27;3.65;;;1.13;;
69970;SDS011;57301;50.328;8.542;2023-03-14T10:40:59;3.35;;;1.60;;
69970;SDS011;57301;50.328;8.542;2023-03-14T10:43:32;2.67;;;1.38;;
69970;SDS011;57301;50.328;8.542;2023-03-14T10:46:18;3.42;;;1.50;;
69970;SDS011;57301;50.328;8.542;2023-03-14T10:48:46;2.83;;;1.50;;
69970;SDS011;57301;50.328;8.542;2023-03-14T10:51:19;2.40;;;1.45;;
69970;SDS011;57301;50.328;8.542;2023-03-14T10:56:40;2.55;;;1.30;;
69970;SDS011;57301;50.328;8.542;2023-03-14T10:59:07;3.05;;;1.40;;
69970;SDS011;57301;50.328;8.542;2023-03-14T11:05:01;3.33;;;1.50;;
69970;SDS011;57301;50.328;8.542;2023-03-14T11:07:43;1.90;;;1.02;;
69970;SDS011;57301;50.328;8.542;2023-03-14T11:15:46;2.80;;;1.73;;
69970;SDS011;57301;50.328;8.542;2023-03-14T11:18:23;2.65;;;1.40;;
69970;SDS011;57301;50.328;8.542;2023-03-14T11:20:55;2.60;;;1.60;;
69970;SDS011;57301;50.328;8.542;2023-03-14T11:28:47;3.13;;;1.73;;
69970;SDS011;57301;50.328;8.542;2023-03-14T11:31:18;3.13;;;1.92;;
69970;SDS011;57301;50.328;8.542;2023-03-14T11:34:07;2.55;;;1.52;;
69970;SDS011;57301;50.328;8.542;2023-03-14T11:36:44;4.13;;;2.25;;
69970;SDS011;57301;50.328;8.542;2023-03-14T11:39:18;2.80;;;1.90;;
69970;SDS011;57301;50.328;8.542;2023-03-14T11:41:47;2.30;;;1.47;;
69970;SDS011;57301;50.328;8.542;2023-03-14T11:44:18;3.50;;;1.80;;
69970;SDS011;57301;50.328;8.542;2023-03-14T11:47:00;4.35;;;1.40;;
69970;SDS011;57301;50.328;8.542;2023-03-14T11:52:03;7.43;;;2.45;;
69970;SDS011;57301;50.328;8.542;2023-03-14T11:57:21;1.90;;;1.10;;
69970;SDS011;57301;50.328;8.542;2023-03-14T12:05:24;3.88;;;1.38;;
69970;SDS011;57301;50.328;8.542;2023-03-14T12:10:39;3.00;;;1.25;;
69970;SDS011;57301;50.328;8.542;2023-03-14T12:13:11;1.98;;;0.90;;
69970;SDS011;57301;50.328;8.542;2023-03-14T12:15:41;2.75;;;1.20;;
69970;SDS011;57301;50.328;8.542;2023-03-14T12:18:32;2.65;;;1.35;;
69970;SDS011;57301;50.328;8.542;2023-03-14T12:21:03;2.00;;;1.20;;
69970;SDS011;57301;50.328;8.542;2023-03-14T12:23:51;2.00;;;1.10;;
69970;SDS011;57301;50.328;8.542;2023-03-14T12:26:20;4.97;;;1.40;;
69970;SDS011;57301;50.328;8.542;2023-03-14T12:29:31;2.33;;;1.10;;
69970;SDS011;57301;50.328;8.542;2023-03-14T12:31:42;2.97;;;1.63;;
69970;SDS011;57301;50.328;8.542;2023-03-14T12:39:21;2.10;;;1.20;;
69970;SDS011;57301;50.328;8.542;2023-03-14T12:41:52;1.90;;;1.20;;
69970;SDS011;57301;50.328;8.542;2023-03-14T12:47:13;2.83;;;1.33;;
69970;SDS011;57301;50.328;8.542;2023-03-14T12:49:40;2.40;;;1.30;;
69970;SDS011;57301;50.328;8.542;2023-03-14T12:52:13;2.75;;;1.35;;
69970;SDS011;57301;50.328;8.542;2023-03-14T12:55:26;3.10;;;1.40;;
69970;SDS011;57301;50.328;8.542;2023-03-14T12:57:55;2.35;;;1.35;;
69970;SDS011;57301;50.328;8.542;2023-03-14T13:00:34;2.40;;;1.40;;
69970;SDS011;57301;50.328;8.542;2023-03-14T13:03:26;2.97;;;1.40;;
69970;SDS011;57301;50.328;8.542;2023-03-14T13:06:02;3.20;;;1.70;;
69970;SDS011;57301;50.328;8.542;2023-03-14T13:11:06;2.30;;;1.60;;
69970;SDS011;57301;50.328;8.542;2023-03-14T13:13:37;2.80;;;1.60;;
69970;SDS011;57301;50.328;8.542;2023-03-14T13:16:14;3.20;;;1.80;;
69970;SDS011;57301;50.328;8.542;2023-03-14T13:18:50;2.60;;;1.60;;
69970;SDS011;57301;50.328;8.542;2023-03-14T13:21:27;2.30;;;1.60;;
69970;SDS011;57301;50.328;8.542;2023-03-14T13:24:01;3.13;;;1.75;;
69970;SDS011;57301;50.328;8.542;2023-03-14T13:26:35;2.60;;;1.60;;
69970;SDS011;57301;50.328;8.542;2023-03-14T13:29:19;2.22;;;1.50;;
69970;SDS011;57301;50.328;8.542;2023-03-14T13:31:49;2.40;;;1.50;;
69970;SDS011;57301;50.328;8.542;2023-03-14T13:34:17;2.78;;;1.75;;
69970;SDS011;57301;50.328;8.542;2023-03-14T13:36:44;3.75;;;1.45;;
69970;SDS011;57301;50.328;8.542;2023-03-14T13:39:16;3.13;;;1.40;;
69970;SDS011;57301;50.328;8.542;2023-03-14T13:41:46;2.60;;;1.50;;
69970;SDS011;57301;50.328;8.542;2023-03-14T13:46:57;2.90;;;1.75;;
69970;SDS011;57301;50.328;8.542;2023-03-14T13:49:25;2.85;;;1.60;;
69970;SDS011;57301;50.328;8.542;2023-03-14T13:51:52;3.10;;;1.73;;
69970;SDS011;57301;50.328;8.542;2023-03-14T13:54:20;4.07;;;1.55;;
69970;SDS011;57301;50.328;8.542;2023-03-14T13:56:48;2.70;;;1.40;;
69970;SDS011;57301;50.328;8.542;2023-03-14T13:59:24;2.50;;;1.30;;
69970;SDS011;57301;50.328;8.542;2023-03-14T14:01:53;2.42;;;1.33;;
69970;SDS011;57301;50.328;8.542;2023-03-14T14:04:21;1.97;;;1.00;;
69970;SDS011;57301;50.328;8.542;2023-03-14T14:06:55;5.63;;;2.95;;
69970;SDS011;57301;50.328;8.542;2023-03-14T14:09:25;2.60;;;1.35;;
69970;SDS011;57301;50.328;8.542;2023-03-14T14:17:28;2.10;;;1.10;;
69970;SDS011;57301;50.328;8.542;2023-03-14T14:19:59;2.05;;;1.00;;
69970;SDS011;57301;50.328;8.542;2023-03-14T14:22:29;2.33;;;1.20;;
69970;SDS011;57301;50.328;8.542;2023-03-14T14:24:56;3.20;;;1.58;;
69970;SDS011;57301;50.328;8.542;2023-03-14T14:27:24;3.75;;;1.30;;
69970;SDS011;57301;50.328;8.542;2023-03-14T14:29:58;2.17;;;1.30;;
69970;SDS011;57301;50.328;8.542;2023-03-14T14:32:34;2.63;;;1.40;;
69970;SDS011;57301;50.328;8.542;2023-03-14T14:35:05;2.45;;;1.50;;
69970;SDS011;57301;50.328;8.542;2023-03-14T14:37:33;3.33;;;1.35;;
69970;SDS011;57301;50.328;8.542;2023-03-14T14:40:10;2.28;;;1.40;;
69970;SDS011;57301;50.328;8.542;2023-03-14T14:42:44;3.23;;;1.50;;
69970;SDS011;57301;50.328;8.542;2023-03-14T14:45:13;2.53;;;1.42;;
69970;SDS011;57301;50.328;8.542;2023-03-14T14:53:29;4.07;;;1.85;;
69970;SDS011;57301;50.328;8.542;2023-03-14T14:56:00;3.57;;;2.07;;
69970;SDS011;57301;50.328;8.542;2023-03-14T14:58:36;3.40;;;2.13;;
69970;SDS011;57301;50.328;8.542;2023-03-14T15:01:11;3.95;;;2.40;;
69970;SDS011;57301;50.328;8.542;2023-03-14T15:03:43;3.40;;;2.30;;
69970;SDS011;57301;50.328;8.542;2023-03-14T15:06:12;3.50;;;2.15;;
69970;SDS011;57301;50.328;8.542;2023-03-14T15:08:40;4.57;;;2.60;;
69970;SDS011;57301;50.328;8.542;2023-03-14T15:11:12;3.80;;;2.90;;
69970;SDS011;57301;50.328;8.542;2023-03-14T15:13:43;7.05;;;3.30;;
69970;SDS011;57301;50.328;8.542;2023-03-14T15:16:10;5.15;;;3.25;;
69970;SDS011;57301;50.328;8.542;2023-03-14T15:18:38;4.70;;;2.88;;
69970;SDS011;57301;50.328;8.542;2023-03-14T15:21:04;5.87;;;3.60;;
69970;SDS011;57301;50.328;8.542;2023-03-14T15:23:31;7.22;;;3.85;;
69970;SDS011;57301;50.328;8.542;2023-03-14T15:25:58;4.82;;;3.22;;
69970;SDS011;57301;50.328;8.542;2023-03-14T15:28:27;5.25;;;3.42;;
69970;SDS011;57301;50.328;8.542;2023-03-14T15:30:56;5.95;;;3.78;;
69970;SDS011;57301;50.328;8.542;2023-03-14T15:33:25;6.93;;;3.73;;
69970;SDS011;57301;50.328;8.542;2023-03-14T15:35:52;12.20;;;6.90;;
69970;SDS011;57301;50.328;8.542;2023-03-14T15:38:21;5.45;;;3.42;;
69970;SDS011;57301;50.328;8.542;2023-03-14T15:40:49;5.60;;;3.70;;
69970;SDS011;57301;50.328;8.542;2023-03-14T15:43:17;6.75;;;4.18;;
69970;SDS011;57301;50.328;8.542;2023-03-14T15:45:44;5.50;;;3.40;;
69970;SDS011;57301;50.328;8.542;2023-03-14T15:48:18;3.80;;;2.47;;
69970;SDS011;57301;50.328;8.542;2023-03-14T15:50:47;4.20;;;2.63;;
69970;SDS011;57301;50.328;8.542;2023-03-14T15:53:13;4.55;;;2.85;;
69970;SDS011;57301;50.328;8.542;2023-03-14T15:55:40;5.75;;;3.22;;
69970;SDS011;57301;50.328;8.542;2023-03-14T15:58:09;5.13;;;2.93;;
69970;SDS011;57301;50.328;8.542;2023-03-14T16:00:46;5.45;;;2.53;;
69970;SDS011;57301;50.328;8.542;2023-03-14T16:03:13;3.85;;;2.10;;
69970;SDS011;57301;50.328;8.542;2023-03-14T16:05:39;3.65;;;2.08;;
69970;SDS011;57301;50.328;8.542;2023-03-14T16:08:06;4.07;;;2.50;;
69970;SDS011;57301;50.328;8.542;2023-03-14T16:10:33;5.00;;;2.77;;
69970;SDS011;57301;50.328;8.542;2023-03-14T16:12:59;4.13;;;2.40;;
69970;SDS011;57301;50.328;8.542;2023-03-14T16:15:26;4.90;;;2.75;;
69970;SDS011;57301;50.328;8.542;2023-03-14T16:17:53;4.00;;;2.40;;